sensor_id;sensor_type;location;lat;lon;timestamp;temperature;humidity
70826;SHT31;58446;41.490;22.098;2023-02-21T00:02:05;8.35;54.13
70826;SHT31;58446;41.490;22.098;2023-02-21T00:04:49;8.35;54.24
70826;SHT31;58446;41.490;22.098;2023-02-21T00:07:33;8.70;53.15
70826;SHT31;58446;41.490;22.098;2023-02-21T00:10:18;7.98;52.18
70826;SHT31;58446;41.490;22.098;2023-02-21T00:13:02;7.78;53.45
70826;SHT31;58446;41.490;22.098;2023-02-21T00:15:46;8.32;53.90
70826;SHT31;58446;41.490;22.098;2023-02-21T00:18:37;8.53;53.10
70826;SHT31;58446;41.490;22.098;2023-02-21T00:21:22;8.29;52.63
70826;SHT31;58446;41.490;22.098;2023-02-21T00:24:07;8.72;52.93
70826;SHT31;58446;41.490;22.098;2023-02-21T00:26:55;8.75;52.96
70826;SHT31;58446;41.490;22.098;2023-02-21T00:29:38;8.73;52.98
70826;SHT31;58446;41.490;22.098;2023-02-21T00:32:22;8.90;52.69
70826;SHT31;58446;41.490;22.098;2023-02-21T00:35:06;8.86;52.47
70826;SHT31;58446;41.490;22.098;2023-02-21T00:37:51;8.77;52.43
70826;SHT31;58446;41.490;22.098;2023-02-21T00:40:35;8.44;52.87
70826;SHT31;58446;41.490;22.098;2023-02-21T00:43:19;8.12;51.73
70826;SHT31;58446;41.490;22.098;2023-02-21T00:46:10;7.69;54.09
70826;SHT31;58446;41.490;22.098;2023-02-21T00:48:53;7.30;55.28
70826;SHT31;58446;41.490;22.098;2023-02-21T00:51:38;7.66;55.15
70826;SHT31;58446;41.490;22.098;2023-02-21T00:54:21;8.24;53.58
70826;SHT31;58446;41.490;22.098;2023-02-21T00:57:05;8.44;53.21
70826;SHT31;58446;41.490;22.098;2023-02-21T00:59:49;8.34;52.96
70826;SHT31;58446;41.490;22.098;2023-02-21T01:02:33;8.06;53.53
70826;SHT31;58446;41.490;22.098;2023-02-21T01:05:17;7.93;53.98
70826;SHT31;58446;41.490;22.098;2023-02-21T01:08:01;8.05;53.94
70826;SHT31;58446;41.490;22.098;2023-02-21T01:10:45;8.12;53.46
70826;SHT31;58446;41.490;22.098;2023-02-21T01:13:29;7.50;53.05
70826;SHT31;58446;41.490;22.098;2023-02-21T01:16:13;7.19;54.03
70826;SHT31;58446;41.490;22.098;2023-02-21T01:18:57;5.62;59.80
70826;SHT31;58446;41.490;22.098;2023-02-21T01:21:41;5.93;60.11
70826;SHT31;58446;41.490;22.098;2023-02-21T01:24:25;6.29;59.51
70826;SHT31;58446;41.490;22.098;2023-02-21T01:27:08;6.84;58.05
70826;SHT31;58446;41.490;22.098;2023-02-21T01:29:53;7.16;57.19
70826;SHT31;58446;41.490;22.098;2023-02-21T01:32:36;7.22;57.06
70826;SHT31;58446;41.490;22.098;2023-02-21T01:35:20;7.36;56.36
70826;SHT31;58446;41.490;22.098;2023-02-21T01:38:05;6.71;58.79
70826;SHT31;58446;41.490;22.098;2023-02-21T01:40:49;7.20;57.12
70826;SHT31;58446;41.490;22.098;2023-02-21T01:43:33;7.06;56.37
70826;SHT31;58446;41.490;22.098;2023-02-21T01:46:18;7.01;57.37
70826;SHT31;58446;41.490;22.098;2023-02-21T01:49:10;6.94;56.89
70826;SHT31;58446;41.490;22.098;2023-02-21T01:51:56;6.75;57.90
70826;SHT31;58446;41.490;22.098;2023-02-21T01:54:46;7.05;56.88
70826;SHT31;58446;41.490;22.098;2023-02-21T01:57:32;7.22;56.58
70826;SHT31;58446;41.490;22.098;2023-02-21T02:00:18;7.13;56.33
70826;SHT31;58446;41.490;22.098;2023-02-21T02:03:05;7.27;56.41
70826;SHT31;58446;41.490;22.098;2023-02-21T02:05:56;7.32;56.56
70826;SHT31;58446;41.490;22.098;2023-02-21T02:08:40;7.37;56.07
70826;SHT31;58446;41.490;22.098;2023-02-21T02:15:18;7.54;54.99
70826;SHT31;58446;41.490;22.098;2023-02-21T02:18:17;7.47;55.73
70826;SHT31;58446;41.490;22.098;2023-02-21T02:29:24;7.09;56.70
70826;SHT31;58446;41.490;22.098;2023-02-21T02:43:07;6.82;56.69
70826;SHT31;58446;41.490;22.098;2023-02-21T02:45:54;6.96;56.19
70826;SHT31;58446;41.490;22.098;2023-02-21T02:48:35;7.18;55.48
70826;SHT31;58446;41.490;22.098;2023-02-21T02:51:12;7.08;55.29
70826;SHT31;58446;41.490;22.098;2023-02-21T02:53:39;6.96;55.58
70826;SHT31;58446;41.490;22.098;2023-02-21T02:56:09;6.80;55.48
70826;SHT31;58446;41.490;22.098;2023-02-21T03:01:18;6.81;56.12
70826;SHT31;58446;41.490;22.098;2023-02-21T03:09:38;6.34;58.19
70826;SHT31;58446;41.490;22.098;2023-02-21T03:14:58;5.63;61.54
70826;SHT31;58446;41.490;22.098;2023-02-21T03:17:26;5.20;62.76
70826;SHT31;58446;41.490;22.098;2023-02-21T03:19:55;5.16;63.67
70826;SHT31;58446;41.490;22.098;2023-02-21T03:22:25;5.82;61.30
70826;SHT31;58446;41.490;22.098;2023-02-21T03:24:52;6.13;60.05
70826;SHT31;58446;41.490;22.098;2023-02-21T03:27:19;5.82;59.89
70826;SHT31;58446;41.490;22.098;2023-02-21T03:29:46;6.23;59.40
70826;SHT31;58446;41.490;22.098;2023-02-21T03:32:19;6.68;58.28
70826;SHT31;58446;41.490;22.098;2023-02-21T03:34:46;6.53;57.67
70826;SHT31;58446;41.490;22.098;2023-02-21T03:37:39;6.65;58.21
70826;SHT31;58446;41.490;22.098;2023-02-21T03:40:11;6.47;56.67
70826;SHT31;58446;41.490;22.098;2023-02-21T03:42:37;6.45;57.42
70826;SHT31;58446;41.490;22.098;2023-02-21T03:45:03;6.47;57.53
70826;SHT31;58446;41.490;22.098;2023-02-21T03:47:29;6.55;57.62
70826;SHT31;58446;41.490;22.098;2023-02-21T03:49:54;6.71;57.34
70826;SHT31;58446;41.490;22.098;2023-02-21T03:52:20;5.81;56.41
70826;SHT31;58446;41.490;22.098;2023-02-21T03:54:47;6.26;58.30
70826;SHT31;58446;41.490;22.098;2023-02-21T03:57:13;5.47;57.75
70826;SHT31;58446;41.490;22.098;2023-02-21T03:59:38;5.75;59.26
70826;SHT31;58446;41.490;22.098;2023-02-21T04:02:04;6.27;58.42
70826;SHT31;58446;41.490;22.098;2023-02-21T04:04:30;5.96;57.17
70826;SHT31;58446;41.490;22.098;2023-02-21T04:06:55;6.27;57.56
70826;SHT31;58446;41.490;22.098;2023-02-21T04:09:21;6.30;57.29
70826;SHT31;58446;41.490;22.098;2023-02-21T04:11:47;6.41;56.74
70826;SHT31;58446;41.490;22.098;2023-02-21T04:14:13;6.07;56.05
70826;SHT31;58446;41.490;22.098;2023-02-21T04:16:39;6.14;57.80
70826;SHT31;58446;41.490;22.098;2023-02-21T04:19:06;6.10;56.88
70826;SHT31;58446;41.490;22.098;2023-02-21T04:21:31;6.05;57.71
70826;SHT31;58446;41.490;22.098;2023-02-21T04:23:57;5.79;57.64
70826;SHT31;58446;41.490;22.098;2023-02-21T04:26:23;5.30;59.86
70826;SHT31;58446;41.490;22.098;2023-02-21T04:28:50;5.66;59.42
70826;SHT31;58446;41.490;22.098;2023-02-21T04:31:17;5.99;58.51
70826;SHT31;58446;41.490;22.098;2023-02-21T04:33:43;5.95;57.65
70826;SHT31;58446;41.490;22.098;2023-02-21T04:36:09;5.88;58.50
70826;SHT31;58446;41.490;22.098;2023-02-21T04:38:35;4.65;62.38
70826;SHT31;58446;41.490;22.098;2023-02-21T04:41:03;5.20;60.69
70826;SHT31;58446;41.490;22.098;2023-02-21T04:43:29;4.87;61.59
70826;SHT31;58446;41.490;22.098;2023-02-21T04:45:55;5.32;60.82
70826;SHT31;58446;41.490;22.098;2023-02-21T04:48:20;5.61;59.86
70826;SHT31;58446;41.490;22.098;2023-02-21T04:50:46;5.63;59.64
70826;SHT31;58446;41.490;22.098;2023-02-21T04:53:12;5.92;59.03
70826;SHT31;58446;41.490;22.098;2023-02-21T04:55:38;5.95;58.45
70826;SHT31;58446;41.490;22.098;2023-02-21T04:58:03;5.93;58.77
70826;SHT31;58446;41.490;22.098;2023-02-21T05:00:29;6.03;58.12
70826;SHT31;58446;41.490;22.098;2023-02-21T05:02:55;5.71;57.55
70826;SHT31;58446;41.490;22.098;2023-02-21T05:05:21;5.81;58.94
70826;SHT31;58446;41.490;22.098;2023-02-21T05:07:47;5.65;57.24
70826;SHT31;58446;41.490;22.098;2023-02-21T05:10:15;5.45;58.43
70826;SHT31;58446;41.490;22.098;2023-02-21T05:12:41;4.70;59.13
70826;SHT31;58446;41.490;22.098;2023-02-21T05:15:09;4.60;62.08
70826;SHT31;58446;41.490;22.098;2023-02-21T05:17:35;4.84;61.36
70826;SHT31;58446;41.490;22.098;2023-02-21T05:20:01;4.99;60.86
70826;SHT31;58446;41.490;22.098;2023-02-21T05:22:26;5.26;60.38
70826;SHT31;58446;41.490;22.098;2023-02-21T05:24:52;5.27;58.65
70826;SHT31;58446;41.490;22.098;2023-02-21T05:27:19;5.38;59.19
70826;SHT31;58446;41.490;22.098;2023-02-21T05:29:50;5.63;59.34
70826;SHT31;58446;41.490;22.098;2023-02-21T05:32:17;5.98;58.06
70826;SHT31;58446;41.490;22.098;2023-02-21T05:34:43;6.07;57.40
70826;SHT31;58446;41.490;22.098;2023-02-21T05:37:11;5.86;57.68
70826;SHT31;58446;41.490;22.098;2023-02-21T05:39:37;5.82;56.87
70826;SHT31;58446;41.490;22.098;2023-02-21T05:42:04;5.75;57.41
70826;SHT31;58446;41.490;22.098;2023-02-21T05:44:30;5.71;57.67
70826;SHT31;58446;41.490;22.098;2023-02-21T05:46:55;5.72;57.10
70826;SHT31;58446;41.490;22.098;2023-02-21T05:49:21;5.95;57.03
70826;SHT31;58446;41.490;22.098;2023-02-21T05:51:47;6.55;55.18
70826;SHT31;58446;41.490;22.098;2023-02-21T05:54:16;7.49;52.78
70826;SHT31;58446;41.490;22.098;2023-02-21T05:56:45;7.70;51.34
70826;SHT31;58446;41.490;22.098;2023-02-21T05:59:12;8.09;50.85
70826;SHT31;58446;41.490;22.098;2023-02-21T06:01:38;7.77;51.31
70826;SHT31;58446;41.490;22.098;2023-02-21T06:04:04;7.64;52.42
70826;SHT31;58446;41.490;22.098;2023-02-21T06:06:33;8.20;51.57
70826;SHT31;58446;41.490;22.098;2023-02-21T06:08:59;8.67;50.21
70826;SHT31;58446;41.490;22.098;2023-02-21T06:11:29;9.46;48.37
70826;SHT31;58446;41.490;22.098;2023-02-21T06:13:59;9.54;47.94
70826;SHT31;58446;41.490;22.098;2023-02-21T06:16:25;10.33;46.71
70826;SHT31;58446;41.490;22.098;2023-02-21T06:18:55;10.95;44.85
70826;SHT31;58446;41.490;22.098;2023-02-21T06:21:21;10.24;45.84
70826;SHT31;58446;41.490;22.098;2023-02-21T06:23:47;11.57;43.84
70826;SHT31;58446;41.490;22.098;2023-02-21T06:26:14;10.75;45.37
70826;SHT31;58446;41.490;22.098;2023-02-21T06:28:40;11.47;43.77
70826;SHT31;58446;41.490;22.098;2023-02-21T06:31:06;11.29;44.25
70826;SHT31;58446;41.490;22.098;2023-02-21T06:33:32;10.96;45.34
70826;SHT31;58446;41.490;22.098;2023-02-21T06:36:03;11.74;43.78
70826;SHT31;58446;41.490;22.098;2023-02-21T06:38:29;11.98;43.38
70826;SHT31;58446;41.490;22.098;2023-02-21T06:40:54;11.81;43.64
70826;SHT31;58446;41.490;22.098;2023-02-21T06:43:20;11.73;43.95
70826;SHT31;58446;41.490;22.098;2023-02-21T06:45:45;11.59;43.81
70826;SHT31;58446;41.490;22.098;2023-02-21T06:48:16;11.63;44.02
70826;SHT31;58446;41.490;22.098;2023-02-21T06:50:41;11.04;45.67
70826;SHT31;58446;41.490;22.098;2023-02-21T06:53:07;11.69;44.25
70826;SHT31;58446;41.490;22.098;2023-02-21T06:55:33;11.40;45.00
70826;SHT31;58446;41.490;22.098;2023-02-21T06:57:58;10.29;47.98
70826;SHT31;58446;41.490;22.098;2023-02-21T07:00:24;10.63;46.82
70826;SHT31;58446;41.490;22.098;2023-02-21T07:02:51;10.75;46.83
70826;SHT31;58446;41.490;22.098;2023-02-21T07:05:18;9.99;49.30
70826;SHT31;58446;41.490;22.098;2023-02-21T07:07:44;9.83;49.77
70826;SHT31;58446;41.490;22.098;2023-02-21T07:10:09;9.97;49.58
70826;SHT31;58446;41.490;22.098;2023-02-21T07:12:35;10.03;49.57
70826;SHT31;58446;41.490;22.098;2023-02-21T07:15:02;9.99;49.67
70826;SHT31;58446;41.490;22.098;2023-02-21T07:17:27;10.05;49.78
70826;SHT31;58446;41.490;22.098;2023-02-21T07:19:53;10.23;49.33
70826;SHT31;58446;41.490;22.098;2023-02-21T07:22:20;10.40;48.54
70826;SHT31;58446;41.490;22.098;2023-02-21T07:24:54;10.27;48.78
70826;SHT31;58446;41.490;22.098;2023-02-21T07:27:20;10.69;47.75
70826;SHT31;58446;41.490;22.098;2023-02-21T07:29:47;10.58;48.00
70826;SHT31;58446;41.490;22.098;2023-02-21T07:32:15;10.91;47.69
70826;SHT31;58446;41.490;22.098;2023-02-21T07:34:41;10.77;47.68
70826;SHT31;58446;41.490;22.098;2023-02-21T07:37:07;11.02;47.16
70826;SHT31;58446;41.490;22.098;2023-02-21T07:39:32;11.05;46.93
70826;SHT31;58446;41.490;22.098;2023-02-21T07:41:58;11.20;46.71
70826;SHT31;58446;41.490;22.098;2023-02-21T07:44:24;11.53;46.46
70826;SHT31;58446;41.490;22.098;2023-02-21T07:46:49;11.69;46.33
70826;SHT31;58446;41.490;22.098;2023-02-21T07:49:15;11.91;45.80
70826;SHT31;58446;41.490;22.098;2023-02-21T07:51:41;12.08;45.47
70826;SHT31;58446;41.490;22.098;2023-02-21T07:54:06;12.10;45.70
70826;SHT31;58446;41.490;22.098;2023-02-21T07:56:32;12.01;46.62
70826;SHT31;58446;41.490;22.098;2023-02-21T07:58:58;12.21;46.60
70826;SHT31;58446;41.490;22.098;2023-02-21T08:01:24;12.39;45.60
70826;SHT31;58446;41.490;22.098;2023-02-21T08:03:50;12.65;44.57
70826;SHT31;58446;41.490;22.098;2023-02-21T08:06:16;12.59;44.55
70826;SHT31;58446;41.490;22.098;2023-02-21T08:08:43;12.11;45.61
70826;SHT31;58446;41.490;22.098;2023-02-21T08:11:09;11.74;47.17
70826;SHT31;58446;41.490;22.098;2023-02-21T08:13:35;11.77;47.01
70826;SHT31;58446;41.490;22.098;2023-02-21T08:16:00;11.40;47.40
70826;SHT31;58446;41.490;22.098;2023-02-21T08:18:26;10.94;50.73
70826;SHT31;58446;41.490;22.098;2023-02-21T08:20:53;10.47;50.64
70826;SHT31;58446;41.490;22.098;2023-02-21T08:23:20;10.54;51.05
70826;SHT31;58446;41.490;22.098;2023-02-21T08:25:46;10.81;51.40
70826;SHT31;58446;41.490;22.098;2023-02-21T08:28:13;10.98;49.86
70826;SHT31;58446;41.490;22.098;2023-02-21T08:30:39;10.95;50.00
70826;SHT31;58446;41.490;22.098;2023-02-21T08:33:04;10.81;51.08
70826;SHT31;58446;41.490;22.098;2023-02-21T08:35:30;11.35;50.38
70826;SHT31;58446;41.490;22.098;2023-02-21T08:37:56;11.14;50.21
70826;SHT31;58446;41.490;22.098;2023-02-21T08:40:30;11.26;50.86
70826;SHT31;58446;41.490;22.098;2023-02-21T08:42:58;11.57;49.95
70826;SHT31;58446;41.490;22.098;2023-02-21T08:45:25;11.71;49.24
70826;SHT31;58446;41.490;22.098;2023-02-21T08:47:53;11.67;50.23
70826;SHT31;58446;41.490;22.098;2023-02-21T08:50:20;11.94;48.85
70826;SHT31;58446;41.490;22.098;2023-02-21T08:52:47;11.65;49.18
70826;SHT31;58446;41.490;22.098;2023-02-21T08:55:14;11.76;48.93
70826;SHT31;58446;41.490;22.098;2023-02-21T08:57:39;12.21;48.88
70826;SHT31;58446;41.490;22.098;2023-02-21T09:00:06;12.50;47.59
70826;SHT31;58446;41.490;22.098;2023-02-21T09:02:35;12.83;46.64
70826;SHT31;58446;41.490;22.098;2023-02-21T09:05:07;13.03;46.02
70826;SHT31;58446;41.490;22.098;2023-02-21T09:07:33;13.41;46.02
70826;SHT31;58446;41.490;22.098;2023-02-21T09:10:00;13.62;44.68
70826;SHT31;58446;41.490;22.098;2023-02-21T09:12:26;13.61;44.60
70826;SHT31;58446;41.490;22.098;2023-02-21T09:14:51;13.54;44.84
70826;SHT31;58446;41.490;22.098;2023-02-21T09:17:17;13.31;45.81
70826;SHT31;58446;41.490;22.098;2023-02-21T09:19:43;13.53;45.44
70826;SHT31;58446;41.490;22.098;2023-02-21T09:22:09;13.68;44.75
70826;SHT31;58446;41.490;22.098;2023-02-21T09:24:35;13.44;44.90
70826;SHT31;58446;41.490;22.098;2023-02-21T09:27:02;13.41;45.46
70826;SHT31;58446;41.490;22.098;2023-02-21T09:29:30;13.77;44.68
70826;SHT31;58446;41.490;22.098;2023-02-21T09:31:56;13.95;44.13
70826;SHT31;58446;41.490;22.098;2023-02-21T09:34:21;13.58;44.60
70826;SHT31;58446;41.490;22.098;2023-02-21T09:36:48;13.44;46.08
70826;SHT31;58446;41.490;22.098;2023-02-21T09:39:16;13.74;44.98
70826;SHT31;58446;41.490;22.098;2023-02-21T09:41:42;14.06;44.32
70826;SHT31;58446;41.490;22.098;2023-02-21T09:44:21;14.46;44.10
70826;SHT31;58446;41.490;22.098;2023-02-21T09:47:03;14.76;42.49
70826;SHT31;58446;41.490;22.098;2023-02-21T09:49:38;15.09;41.51
70826;SHT31;58446;41.490;22.098;2023-02-21T09:52:06;15.36;40.76
70826;SHT31;58446;41.490;22.098;2023-02-21T09:54:45;15.40;40.51
70826;SHT31;58446;41.490;22.098;2023-02-21T09:57:14;15.56;40.31
70826;SHT31;58446;41.490;22.098;2023-02-21T09:59:40;15.71;40.14
70826;SHT31;58446;41.490;22.098;2023-02-21T10:10:46;14.55;42.18
70826;SHT31;58446;41.490;22.098;2023-02-21T10:16:24;14.80;42.28
70826;SHT31;58446;41.490;22.098;2023-02-21T10:21:41;15.35;41.59
70826;SHT31;58446;41.490;22.098;2023-02-21T10:24:33;15.55;41.08
70826;SHT31;58446;41.490;22.098;2023-02-21T10:27:11;15.77;40.73
70826;SHT31;58446;41.490;22.098;2023-02-21T10:32:22;15.89;38.00
70826;SHT31;58446;41.490;22.098;2023-02-21T10:34:49;15.85;38.29
70826;SHT31;58446;41.490;22.098;2023-02-21T10:37:40;15.66;39.93
70826;SHT31;58446;41.490;22.098;2023-02-21T10:43:16;15.60;39.06
70826;SHT31;58446;41.490;22.098;2023-02-21T10:46:24;15.53;39.51
70826;SHT31;58446;41.490;22.098;2023-02-21T10:48:54;15.56;39.75
70826;SHT31;58446;41.490;22.098;2023-02-21T10:51:33;15.59;39.57
70826;SHT31;58446;41.490;22.098;2023-02-21T10:54:19;15.66;39.43
70826;SHT31;58446;41.490;22.098;2023-02-21T10:56:47;15.14;40.71
70826;SHT31;58446;41.490;22.098;2023-02-21T10:59:26;15.31;41.35
70826;SHT31;58446;41.490;22.098;2023-02-21T11:01:53;15.24;40.55
70826;SHT31;58446;41.490;22.098;2023-02-21T11:07:06;14.78;41.05
70826;SHT31;58446;41.490;22.098;2023-02-21T11:09:36;14.99;40.33
70826;SHT31;58446;41.490;22.098;2023-02-21T11:14:40;15.58;39.64
70826;SHT31;58446;41.490;22.098;2023-02-21T11:17:17;15.65;40.68
70826;SHT31;58446;41.490;22.098;2023-02-21T11:22:11;15.86;39.53
70826;SHT31;58446;41.490;22.098;2023-02-21T11:27:17;16.17;39.82
70826;SHT31;58446;41.490;22.098;2023-02-21T11:29:45;16.40;39.43
70826;SHT31;58446;41.490;22.098;2023-02-21T11:32:36;16.62;38.27
70826;SHT31;58446;41.490;22.098;2023-02-21T11:35:04;16.83;37.67
70826;SHT31;58446;41.490;22.098;2023-02-21T11:37:32;16.89;37.32
70826;SHT31;58446;41.490;22.098;2023-02-21T11:39:58;16.99;36.76
70826;SHT31;58446;41.490;22.098;2023-02-21T11:42:32;17.12;36.32
70826;SHT31;58446;41.490;22.098;2023-02-21T11:45:27;17.23;36.24
70826;SHT31;58446;41.490;22.098;2023-02-21T11:48:01;17.31;36.29
70826;SHT31;58446;41.490;22.098;2023-02-21T11:50:42;17.38;36.29
70826;SHT31;58446;41.490;22.098;2023-02-21T11:53:41;17.44;35.51
70826;SHT31;58446;41.490;22.098;2023-02-21T12:01:46;17.60;35.87
70826;SHT31;58446;41.490;22.098;2023-02-21T12:04:47;17.64;36.39
70826;SHT31;58446;41.490;22.098;2023-02-21T12:07:42;17.75;36.14
70826;SHT31;58446;41.490;22.098;2023-02-21T12:13:19;17.20;35.89
70826;SHT31;58446;41.490;22.098;2023-02-21T12:22:25;17.17;37.59
70826;SHT31;58446;41.490;22.098;2023-02-21T12:25:05;17.34;36.54
70826;SHT31;58446;41.490;22.098;2023-02-21T12:30:54;17.54;35.88
70826;SHT31;58446;41.490;22.098;2023-02-21T12:40:07;17.37;36.12
70826;SHT31;58446;41.490;22.098;2023-02-21T12:43:01;17.53;36.57
70826;SHT31;58446;41.490;22.098;2023-02-21T12:50:57;18.04;34.96
70826;SHT31;58446;41.490;22.098;2023-02-21T12:53:30;18.04;35.35
70826;SHT31;58446;41.490;22.098;2023-02-21T12:56:35;18.18;35.12
70826;SHT31;58446;41.490;22.098;2023-02-21T12:58:59;18.26;34.95
70826;SHT31;58446;41.490;22.098;2023-02-21T13:01:35;18.24;34.77
70826;SHT31;58446;41.490;22.098;2023-02-21T13:04:21;18.28;35.26
70826;SHT31;58446;41.490;22.098;2023-02-21T13:07:05;18.12;35.05
70826;SHT31;58446;41.490;22.098;2023-02-21T13:09:42;17.91;35.10
70826;SHT31;58446;41.490;22.098;2023-02-21T13:12:17;17.63;35.92
70826;SHT31;58446;41.490;22.098;2023-02-21T13:14:56;17.60;36.00
70826;SHT31;58446;41.490;22.098;2023-02-21T13:17:25;17.58;35.82
70826;SHT31;58446;41.490;22.098;2023-02-21T13:20:02;17.75;36.06
70826;SHT31;58446;41.490;22.098;2023-02-21T13:28:46;18.25;34.34
70826;SHT31;58446;41.490;22.098;2023-02-21T13:31:23;18.19;34.91
70826;SHT31;58446;41.490;22.098;2023-02-21T13:33:51;18.22;35.07
70826;SHT31;58446;41.490;22.098;2023-02-21T13:36:26;18.22;35.06
70826;SHT31;58446;41.490;22.098;2023-02-21T13:39:17;18.35;34.79
70826;SHT31;58446;41.490;22.098;2023-02-21T13:44:33;18.40;34.41
70826;SHT31;58446;41.490;22.098;2023-02-21T13:47:07;18.40;35.00
70826;SHT31;58446;41.490;22.098;2023-02-21T13:49:54;18.42;35.38
70826;SHT31;58446;41.490;22.098;2023-02-21T13:55:28;18.52;35.12
70826;SHT31;58446;41.490;22.098;2023-02-21T14:08:27;18.81;34.10
70826;SHT31;58446;41.490;22.098;2023-02-21T14:11:00;18.83;33.93
70826;SHT31;58446;41.490;22.098;2023-02-21T14:16:25;18.67;34.32
70826;SHT31;58446;41.490;22.098;2023-02-21T14:21:47;18.74;34.34
70826;SHT31;58446;41.490;22.098;2023-02-21T14:24:26;18.77;34.09
70826;SHT31;58446;41.490;22.098;2023-02-21T14:29:30;18.84;33.82
70826;SHT31;58446;41.490;22.098;2023-02-21T14:32:15;18.80;33.97
70826;SHT31;58446;41.490;22.098;2023-02-21T14:39:43;18.88;33.58
70826;SHT31;58446;41.490;22.098;2023-02-21T14:50:30;18.90;34.01
70826;SHT31;58446;41.490;22.098;2023-02-21T14:53:39;18.90;33.91
70826;SHT31;58446;41.490;22.098;2023-02-21T15:04:40;18.66;34.35
70826;SHT31;58446;41.490;22.098;2023-02-21T15:07:43;18.60;34.11
70826;SHT31;58446;41.490;22.098;2023-02-21T15:10:27;18.63;34.24
70826;SHT31;58446;41.490;22.098;2023-02-21T15:13:01;18.69;34.18
70826;SHT31;58446;41.490;22.098;2023-02-21T15:15:33;18.60;34.37
70826;SHT31;58446;41.490;22.098;2023-02-21T15:18:06;18.57;34.36
70826;SHT31;58446;41.490;22.098;2023-02-21T15:20:34;18.55;35.07
70826;SHT31;58446;41.490;22.098;2023-02-21T15:23:23;18.52;34.88
70826;SHT31;58446;41.490;22.098;2023-02-21T15:25:58;18.46;34.98
70826;SHT31;58446;41.490;22.098;2023-02-21T15:28:26;18.40;35.16
70826;SHT31;58446;41.490;22.098;2023-02-21T15:30:59;18.35;34.96
70826;SHT31;58446;41.490;22.098;2023-02-21T15:33:27;18.33;34.96
70826;SHT31;58446;41.490;22.098;2023-02-21T15:36:00;18.33;35.32
70826;SHT31;58446;41.490;22.098;2023-02-21T15:38:32;18.32;35.49
70826;SHT31;58446;41.490;22.098;2023-02-21T15:41:02;18.33;35.49
70826;SHT31;58446;41.490;22.098;2023-02-21T15:44:36;18.26;35.41
70826;SHT31;58446;41.490;22.098;2023-02-21T15:46:37;18.19;35.78
70826;SHT31;58446;41.490;22.098;2023-02-21T15:49:04;18.16;36.08
70826;SHT31;58446;41.490;22.098;2023-02-21T15:51:30;18.06;36.18
70826;SHT31;58446;41.490;22.098;2023-02-21T15:54:34;17.92;36.85
70826;SHT31;58446;41.490;22.098;2023-02-21T15:57:21;17.81;37.08
70826;SHT31;58446;41.490;22.098;2023-02-21T15:59:49;17.73;37.37
70826;SHT31;58446;41.490;22.098;2023-02-21T16:02:22;17.57;37.70
70826;SHT31;58446;41.490;22.098;2023-02-21T16:04:51;17.48;37.75
70826;SHT31;58446;41.490;22.098;2023-02-21T16:07:28;17.46;37.51
70826;SHT31;58446;41.490;22.098;2023-02-21T16:10:04;17.31;38.78
70826;SHT31;58446;41.490;22.098;2023-02-21T16:12:43;17.16;38.94
70826;SHT31;58446;41.490;22.098;2023-02-21T16:15:24;17.07;39.26
70826;SHT31;58446;41.490;22.098;2023-02-21T16:17:57;16.99;39.56
70826;SHT31;58446;41.490;22.098;2023-02-21T16:20:28;16.90;39.75
70826;SHT31;58446;41.490;22.098;2023-02-21T16:23:24;16.73;40.32
70826;SHT31;58446;41.490;22.098;2023-02-21T16:28:42;16.57;40.97
70826;SHT31;58446;41.490;22.098;2023-02-21T16:31:24;16.48;41.75
70826;SHT31;58446;41.490;22.098;2023-02-21T16:33:50;16.34;42.04
70826;SHT31;58446;41.490;22.098;2023-02-21T16:36:30;16.22;42.87
70826;SHT31;58446;41.490;22.098;2023-02-21T16:38:57;16.06;43.77
70826;SHT31;58446;41.490;22.098;2023-02-21T16:41:23;15.96;43.77
70826;SHT31;58446;41.490;22.098;2023-02-21T16:43:49;15.85;43.47
70826;SHT31;58446;41.490;22.098;2023-02-21T16:46:18;15.83;43.42
70826;SHT31;58446;41.490;22.098;2023-02-21T16:48:47;15.82;43.49
70826;SHT31;58446;41.490;22.098;2023-02-21T16:51:13;15.70;43.41
70826;SHT31;58446;41.490;22.098;2023-02-21T16:53:39;15.65;43.99
70826;SHT31;58446;41.490;22.098;2023-02-21T16:56:05;15.48;44.12
70826;SHT31;58446;41.490;22.098;2023-02-21T16:58:34;15.43;44.35
70826;SHT31;58446;41.490;22.098;2023-02-21T17:01:04;15.27;44.74
70826;SHT31;58446;41.490;22.098;2023-02-21T17:03:30;15.52;43.82
70826;SHT31;58446;41.490;22.098;2023-02-21T17:05:57;15.48;43.95
70826;SHT31;58446;41.490;22.098;2023-02-21T17:08:24;15.45;43.95
70826;SHT31;58446;41.490;22.098;2023-02-21T17:10:51;15.21;44.44
70826;SHT31;58446;41.490;22.098;2023-02-21T17:13:17;15.05;44.44
70826;SHT31;58446;41.490;22.098;2023-02-21T17:15:42;14.85;44.40
70826;SHT31;58446;41.490;22.098;2023-02-21T17:18:08;14.70;44.67
70826;SHT31;58446;41.490;22.098;2023-02-21T17:20:34;14.57;44.79
70826;SHT31;58446;41.490;22.098;2023-02-21T17:23:00;14.47;44.94
70826;SHT31;58446;41.490;22.098;2023-02-21T17:25:27;14.30;45.52
70826;SHT31;58446;41.490;22.098;2023-02-21T17:27:53;14.04;45.96
70826;SHT31;58446;41.490;22.098;2023-02-21T17:30:22;13.85;46.56
70826;SHT31;58446;41.490;22.098;2023-02-21T17:32:49;13.90;46.24
70826;SHT31;58446;41.490;22.098;2023-02-21T17:35:16;13.71;46.64
70826;SHT31;58446;41.490;22.098;2023-02-21T17:37:44;13.69;46.54
70826;SHT31;58446;41.490;22.098;2023-02-21T17:40:22;13.95;46.36
70826;SHT31;58446;41.490;22.098;2023-02-21T17:42:48;13.89;46.38
70826;SHT31;58446;41.490;22.098;2023-02-21T17:45:19;13.99;46.08
70826;SHT31;58446;41.490;22.098;2023-02-21T17:47:45;14.02;45.59
70826;SHT31;58446;41.490;22.098;2023-02-21T17:50:13;13.48;45.98
70826;SHT31;58446;41.490;22.098;2023-02-21T17:52:40;13.10;46.96
70826;SHT31;58446;41.490;22.098;2023-02-21T17:55:07;13.04;47.63
70826;SHT31;58446;41.490;22.098;2023-02-21T17:57:37;13.13;48.08
70826;SHT31;58446;41.490;22.098;2023-02-21T18:00:09;13.14;48.35
70826;SHT31;58446;41.490;22.098;2023-02-21T18:02:38;13.20;48.21
70826;SHT31;58446;41.490;22.098;2023-02-21T18:05:04;13.33;47.99
70826;SHT31;58446;41.490;22.098;2023-02-21T18:07:30;13.23;48.37
70826;SHT31;58446;41.490;22.098;2023-02-21T18:10:01;12.96;49.05
70826;SHT31;58446;41.490;22.098;2023-02-21T18:12:28;12.96;48.92
70826;SHT31;58446;41.490;22.098;2023-02-21T18:14:54;13.00;48.10
70826;SHT31;58446;41.490;22.098;2023-02-21T18:17:23;12.85;47.63
70826;SHT31;58446;41.490;22.098;2023-02-21T18:19:51;12.86;48.07
70826;SHT31;58446;41.490;22.098;2023-02-21T18:22:17;12.70;48.13
70826;SHT31;58446;41.490;22.098;2023-02-21T18:24:42;12.45;48.51
70826;SHT31;58446;41.490;22.098;2023-02-21T18:27:09;12.50;49.05